createdAt,value
2023-01-26T00:00:23.900Z,19.87
2023-01-26T00:02:52.258Z,20.73
2023-01-26T00:05:20.845Z,24.03
2023-01-26T00:07:49.775Z,19.80
2023-01-26T00:10:18.741Z,19.87
2023-01-26T00:12:47.007Z,20.63
2023-01-26T00:15:17.443Z,19.07
2023-01-26T00:17:46.289Z,21.20
2023-01-26T00:20:14.493Z,21.20
2023-01-26T00:22:43.310Z,21.73
2023-01-26T00:25:12.148Z,22.27
2023-01-26T00:27:41.051Z,20.70
2023-01-26T00:30:10.937Z,25.90
2023-01-26T00:32:41.584Z,22.23
2023-01-26T00:35:10.713Z,22.70
2023-01-26T00:37:42.637Z,24.43
2023-01-26T00:40:14.581Z,26.13
2023-01-26T00:42:43.526Z,26.40
2023-01-26T00:45:12.036Z,26.27
2023-01-26T00:47:42.316Z,21.83
2023-01-26T00:50:12.334Z,23.07
2023-01-26T00:52:41.500Z,21.90
2023-01-26T00:55:10.388Z,24.67
2023-01-26T00:57:39.222Z,27.83
2023-01-26T01:00:09.648Z,22.77
2023-01-26T01:02:38.675Z,22.10
2023-01-26T01:05:11.629Z,19.63
2023-01-26T01:07:40.026Z,22.77
2023-01-26T01:10:09.686Z,24.93
2023-01-26T01:12:38.384Z,27.50
2023-01-26T01:15:10.696Z,24.63
2023-01-26T01:17:39.710Z,24.53
2023-01-26T01:20:11.949Z,25.53
2023-01-26T01:22:40.537Z,22.73
2023-01-26T01:25:09.634Z,25.47
2023-01-26T01:27:37.910Z,27.87
2023-01-26T01:30:08.432Z,25.07
2023-01-26T01:32:37.477Z,24.17
2023-01-26T01:35:06.383Z,23.43
2023-01-26T01:37:43.499Z,22.53
2023-01-26T01:40:13.965Z,28.67
2023-01-26T01:42:48.361Z,25.77
2023-01-26T01:45:44.861Z,23.53
2023-01-26T01:48:22.167Z,27.00
2023-01-26T01:50:52.095Z,26.93
2023-01-26T01:53:25.818Z,24.47
2023-01-26T01:55:58.555Z,25.07
2023-01-26T01:58:28.389Z,30.03
2023-01-26T02:00:56.959Z,30.47
2023-01-26T02:03:25.367Z,28.57
2023-01-26T02:06:00.739Z,31.90
2023-01-26T02:08:34.703Z,31.97
2023-01-26T02:11:09.366Z,32.80
2023-01-26T02:13:38.325Z,27.73
2023-01-26T02:16:07.346Z,31.50
2023-01-26T02:18:35.864Z,31.20
2023-01-26T02:21:06.986Z,35.03
2023-01-26T02:23:47.395Z,35.23
2023-01-26T02:26:19.608Z,33.17
2023-01-26T02:28:48.934Z,34.77
2023-01-26T02:31:19.004Z,40.20
2023-01-26T02:33:47.575Z,36.33
2023-01-26T02:36:21.387Z,40.37
2023-01-26T02:39:01.704Z,35.63
2023-01-26T02:41:48.860Z,34.83
2023-01-26T02:44:19.577Z,31.97
2023-01-26T02:46:47.857Z,32.93
2023-01-26T02:49:38.454Z,38.17
2023-01-26T02:52:07.190Z,36.30
2023-01-26T02:54:53.089Z,39.33
2023-01-26T02:57:22.844Z,39.80
2023-01-26T02:59:51.045Z,38.20
2023-01-26T03:02:22.289Z,36.70
2023-01-26T03:04:50.494Z,37.73
2023-01-26T03:07:18.662Z,36.20
2023-01-26T03:09:46.851Z,37.13
2023-01-26T03:12:15.077Z,41.63
2023-01-26T03:14:44.602Z,42.57
2023-01-26T03:17:13.120Z,41.70
2023-01-26T03:19:58.831Z,34.30
2023-01-26T03:22:40.867Z,40.10
2023-01-26T03:25:28.387Z,42.30
2023-01-26T03:27:57.327Z,39.70
2023-01-26T03:30:26.957Z,38.87
2023-01-26T03:32:55.185Z,38.40
2023-01-26T03:35:23.296Z,38.70
2023-01-26T03:37:54.778Z,36.77
2023-01-26T03:40:41.163Z,33.90
2023-01-26T03:43:27.669Z,41.43
2023-01-26T03:46:15.260Z,34.57
2023-01-26T03:49:01.126Z,42.87
2023-01-26T03:51:47.272Z,35.53
2023-01-26T03:54:33.358Z,41.17
2023-01-26T03:57:02.428Z,48.13
2023-01-26T03:59:39.060Z,43.30
2023-01-26T04:02:27.372Z,47.83
2023-01-26T04:05:13.418Z,38.57
2023-01-26T04:08:02.309Z,47.87
2023-01-26T04:10:30.620Z,40.93
2023-01-26T04:13:16.074Z,46.93
2023-01-26T04:16:01.744Z,45.90
2023-01-26T04:18:48.821Z,43.83
2023-01-26T04:21:30.105Z,46.00
2023-01-26T04:23:59.421Z,44.63
2023-01-26T04:26:34.685Z,52.03
2023-01-26T04:29:04.458Z,56.37
2023-01-26T04:31:32.813Z,51.93
2023-01-26T04:34:05.155Z,48.83
2023-01-26T04:36:33.636Z,50.10
2023-01-26T04:39:02.751Z,53.50
2023-01-26T04:41:34.824Z,48.93
2023-01-26T04:44:02.965Z,54.83
2023-01-26T04:46:31.188Z,46.33
2023-01-26T04:49:00.154Z,44.77
2023-01-26T04:51:29.886Z,42.23
2023-01-26T04:53:58.743Z,50.43
2023-01-26T04:56:30.843Z,53.40
2023-01-26T04:59:01.035Z,52.57
2023-01-26T05:01:32.601Z,46.67
2023-01-26T05:04:01.496Z,47.37
2023-01-26T05:06:32.295Z,48.60
2023-01-26T05:09:01.545Z,54.83
2023-01-26T05:11:31.259Z,57.03
2023-01-26T05:13:59.528Z,59.03
2023-01-26T05:16:28.007Z,57.30
2023-01-26T05:18:56.403Z,53.23
2023-01-26T05:21:27.308Z,49.93
2023-01-26T05:23:57.332Z,56.80
2023-01-26T05:26:27.463Z,59.63
2023-01-26T05:28:55.593Z,60.37
2023-01-26T05:31:24.275Z,54.47
2023-01-26T05:33:52.437Z,59.77
2023-01-26T05:36:20.647Z,51.40
2023-01-26T05:38:49.365Z,51.43
2023-01-26T05:41:18.875Z,51.83
2023-01-26T05:43:47.145Z,50.53
2023-01-26T05:46:15.988Z,57.40
2023-01-26T05:48:44.214Z,47.40
2023-01-26T05:51:12.403Z,52.97
2023-01-26T05:53:40.533Z,58.03
2023-01-26T05:56:09.049Z,51.53
2023-01-26T05:58:40.957Z,64.00
2023-01-26T06:01:09.653Z,49.17
2023-01-26T06:03:38.344Z,58.43
2023-01-26T06:06:07.038Z,56.87
2023-01-26T06:08:36.068Z,51.60
2023-01-26T06:11:05.227Z,51.17
2023-01-26T06:13:33.998Z,51.77
2023-01-26T06:16:04.247Z,48.57
2023-01-26T06:18:35.512Z,46.50
2023-01-26T06:21:04.286Z,42.23
2023-01-26T06:23:37.608Z,43.47
2023-01-26T06:26:09.909Z,46.57
2023-01-26T06:28:40.941Z,42.40
2023-01-26T06:31:12.910Z,43.03
2023-01-26T06:33:44.818Z,42.70
2023-01-26T06:36:15.884Z,44.37
2023-01-26T06:38:47.418Z,37.93
2023-01-26T06:41:16.511Z,42.87
2023-01-26T06:43:47.590Z,45.23
2023-01-26T06:46:19.433Z,37.03
2023-01-26T06:48:47.884Z,49.50
2023-01-26T06:51:45.558Z,45.97
2023-01-26T06:54:15.308Z,35.93
2023-01-26T06:56:43.744Z,39.50
2023-01-26T06:59:15.215Z,41.33
2023-01-26T07:01:48.712Z,44.53
2023-01-26T07:04:18.420Z,46.10
2023-01-26T07:06:46.556Z,44.40
2023-01-26T07:09:14.677Z,46.33
2023-01-26T07:11:42.939Z,52.70
2023-01-26T07:14:11.137Z,43.70
2023-01-26T07:16:40.237Z,46.17
2023-01-26T07:19:09.912Z,45.87
2023-01-26T07:21:39.196Z,43.77
2023-01-26T07:24:08.169Z,43.70
2023-01-26T07:26:36.292Z,44.27
2023-01-26T07:29:04.517Z,42.67
2023-01-26T07:31:33.668Z,44.83
2023-01-26T07:34:02.273Z,47.30
2023-01-26T07:36:32.181Z,44.90
2023-01-26T07:39:00.341Z,48.20
2023-01-26T07:41:28.729Z,47.30
2023-01-26T07:43:57.464Z,47.33
2023-01-26T07:46:25.951Z,40.13
2023-01-26T07:48:55.003Z,43.07
2023-01-26T07:51:23.595Z,45.77
2023-01-26T07:53:53.088Z,42.17
2023-01-26T07:56:24.330Z,53.77
2023-01-26T07:58:53.663Z,43.03
2023-01-26T08:01:22.970Z,47.57
2023-01-26T08:03:53.570Z,50.63
2023-01-26T08:06:23.881Z,51.30
2023-01-26T08:08:57.844Z,48.53
2023-01-26T08:11:27.006Z,47.10
2023-01-26T08:13:56.823Z,45.47
2023-01-26T08:16:25.189Z,46.37
2023-01-26T08:18:53.427Z,45.00
2023-01-26T08:21:21.704Z,42.93
2023-01-26T08:23:51.250Z,45.93
2023-01-26T08:26:22.581Z,44.63
2023-01-26T08:28:53.448Z,44.87
2023-01-26T08:31:22.734Z,45.80
2023-01-26T08:33:52.543Z,49.03
2023-01-26T08:36:23.018Z,46.80
2023-01-26T08:38:51.656Z,48.37
2023-01-26T08:41:21.509Z,43.87
2023-01-26T08:43:49.705Z,48.77
2023-01-26T08:46:18.005Z,48.63
2023-01-26T08:48:46.217Z,47.97
2023-01-26T08:51:14.404Z,53.20
2023-01-26T08:53:42.665Z,50.00
2023-01-26T08:56:13.484Z,47.73
2023-01-26T08:58:45.703Z,49.07
2023-01-26T09:01:15.715Z,43.57
2023-01-26T09:03:46.577Z,42.13
2023-01-26T09:06:16.043Z,42.67
2023-01-26T09:08:46.460Z,40.30
2023-01-26T09:11:14.989Z,41.30
2023-01-26T09:13:44.645Z,39.93
2023-01-26T09:16:18.631Z,39.50
2023-01-26T09:18:51.062Z,37.03
2023-01-26T09:21:19.351Z,47.30
2023-01-26T09:23:47.912Z,54.53
2023-01-26T09:26:17.613Z,44.47
2023-01-26T09:28:51.968Z,46.57
2023-01-26T09:31:20.768Z,40.97
2023-01-26T09:33:49.980Z,36.07
2023-01-26T09:36:18.907Z,32.37
2023-01-26T09:38:47.150Z,32.73
2023-01-26T09:41:36.591Z,31.47
2023-01-26T09:44:10.411Z,35.13
2023-01-26T09:46:49.262Z,34.50
2023-01-26T09:49:20.436Z,41.67
2023-01-26T09:51:53.131Z,42.03
2023-01-26T09:54:28.215Z,41.70
2023-01-26T09:56:56.962Z,45.37
2023-01-26T09:59:34.986Z,40.33
2023-01-26T10:02:14.783Z,41.90
2023-01-26T10:04:47.936Z,34.17
2023-01-26T10:07:19.082Z,46.60
2023-01-26T10:09:51.043Z,43.73
2023-01-26T10:12:26.454Z,41.07
2023-01-26T10:15:02.341Z,38.00
2023-01-26T10:17:34.353Z,33.83
2023-01-26T10:20:07.846Z,39.13
2023-01-26T10:22:44.025Z,36.37
2023-01-26T10:25:18.177Z,39.07
2023-01-26T10:27:47.376Z,34.83
2023-01-26T10:30:20.596Z,33.27
2023-01-26T10:32:52.278Z,32.63
2023-01-26T10:35:22.690Z,33.63
2023-01-26T10:37:52.809Z,38.23
2023-01-26T10:40:25.648Z,35.00
2023-01-26T10:42:59.279Z,35.20
2023-01-26T10:45:31.780Z,31.35
2023-01-26T10:48:15.782Z,39.90
2023-01-26T10:50:44.036Z,34.50
2023-01-26T10:53:17.561Z,38.53
2023-01-26T10:55:59.054Z,40.75
2023-01-26T10:58:54.056Z,38.85
2023-01-26T11:01:27.664Z,31.03
2023-01-26T11:04:07.865Z,30.05
2023-01-26T11:06:36.229Z,32.23
2023-01-26T11:09:18.185Z,34.03
2023-01-26T11:12:01.746Z,35.40
2023-01-26T11:14:30.751Z,30.20
2023-01-26T11:17:14.954Z,31.43
2023-01-26T11:20:08.459Z,33.70
2023-01-26T11:22:47.729Z,43.77
2023-01-26T11:25:24.303Z,33.65
2023-01-26T11:28:10.881Z,34.60
2023-01-26T11:30:53.310Z,34.72
2023-01-26T11:33:30.958Z,31.83
2023-01-26T11:36:10.667Z,34.63
2023-01-26T11:38:41.654Z,35.72
2023-01-26T11:41:26.303Z,34.90
2023-01-26T11:44:14.157Z,34.90
2023-01-26T11:46:57.772Z,33.03
2023-01-26T11:49:43.225Z,33.08
2023-01-26T11:52:20.835Z,30.00
2023-01-26T11:55:14.902Z,32.07
2023-01-26T11:57:51.166Z,33.65
2023-01-26T12:00:30.519Z,29.95
2023-01-26T12:03:03.746Z,33.00
2023-01-26T12:05:43.167Z,32.08
2023-01-26T12:08:17.988Z,35.47
2023-01-26T12:10:52.012Z,32.80
2023-01-26T12:13:30.020Z,30.85
2023-01-26T12:16:05.956Z,35.03
2023-01-26T12:18:53.069Z,36.08
2023-01-26T12:21:26.383Z,33.80
2023-01-26T12:24:00.081Z,36.75
2023-01-26T12:26:33.607Z,36.43
2023-01-26T12:29:09.552Z,34.88
2023-01-26T12:31:45.295Z,35.33
2023-01-26T12:34:14.911Z,36.38
2023-01-26T12:36:54.084Z,34.83
2023-01-26T12:39:30.771Z,34.93
2023-01-26T12:42:18.518Z,38.20
2023-01-26T12:44:51.923Z,40.60
2023-01-26T12:47:27.616Z,41.78
2023-01-26T12:50:01.466Z,36.57
2023-01-26T12:52:37.382Z,35.45
2023-01-26T12:55:16.227Z,33.50
2023-01-26T12:57:51.371Z,33.83
2023-01-26T13:00:22.413Z,38.38
2023-01-26T13:02:54.134Z,38.15
2023-01-26T13:05:32.714Z,35.65
2023-01-26T13:08:46.011Z,35.40
2023-01-26T13:11:45.440Z,37.70
2023-01-26T13:14:37.466Z,36.95
2023-01-26T13:17:43.550Z,38.22
2023-01-26T13:20:50.100Z,37.20
2023-01-26T13:23:41.266Z,42.03
2023-01-26T13:26:42.576Z,43.65
2023-01-26T13:29:36.155Z,39.92
2023-01-26T13:32:37.752Z,38.35
2023-01-26T13:35:14.037Z,43.03
2023-01-26T13:37:50.847Z,41.15
2023-01-26T13:40:23.825Z,48.45
2023-01-26T13:42:58.935Z,45.85
2023-01-26T13:45:33.038Z,43.53
2023-01-26T13:48:05.107Z,43.67
2023-01-26T13:50:34.848Z,40.08
2023-01-26T13:53:02.991Z,43.75
2023-01-26T13:55:33.026Z,45.72
2023-01-26T13:58:17.989Z,49.50
2023-01-26T14:00:59.765Z,48.03
2023-01-26T14:03:28.686Z,44.67
2023-01-26T14:06:00.118Z,42.97
2023-01-26T14:08:29.232Z,54.88
2023-01-26T14:10:59.951Z,46.42
2023-01-26T14:13:34.930Z,50.20
2023-01-26T14:16:08.546Z,48.37
2023-01-26T14:18:36.758Z,48.53
2023-01-26T14:21:07.452Z,43.20
2023-01-26T14:23:37.709Z,45.00
2023-01-26T14:26:13.524Z,44.67
2023-01-26T14:28:47.602Z,46.37
2023-01-26T14:31:20.970Z,48.70
2023-01-26T14:33:51.860Z,44.43
2023-01-26T14:36:21.880Z,40.25
2023-01-26T14:38:52.045Z,51.07
2023-01-26T14:41:25.053Z,45.47
2023-01-26T14:43:59.934Z,43.00
2023-01-26T14:46:32.866Z,40.92
2023-01-26T14:49:08.473Z,43.72
2023-01-26T14:51:38.344Z,37.72
2023-01-26T14:54:22.758Z,44.23
2023-01-26T14:56:51.541Z,40.30
2023-01-26T14:59:24.570Z,37.65
2023-01-26T15:01:52.921Z,36.35
2023-01-26T15:04:28.719Z,40.72
2023-01-26T15:06:58.090Z,41.72
2023-01-26T15:09:28.337Z,34.80
2023-01-26T15:12:17.541Z,35.50
2023-01-26T15:14:52.524Z,43.67
2023-01-26T15:17:32.739Z,32.00
2023-01-26T15:20:10.098Z,31.13
2023-01-26T15:22:38.550Z,37.97
2023-01-26T15:25:19.256Z,33.53
2023-01-26T15:27:53.461Z,35.47
2023-01-26T15:30:27.867Z,30.98
2023-01-26T15:32:57.636Z,31.83
2023-01-26T15:35:29.748Z,31.33
2023-01-26T15:38:02.742Z,33.42
2023-01-26T15:40:31.303Z,30.55
2023-01-26T15:43:17.798Z,32.40
2023-01-26T15:46:03.335Z,26.63
2023-01-26T15:48:35.017Z,29.65
2023-01-26T15:51:03.337Z,28.90
2023-01-26T15:53:31.756Z,27.83
2023-01-26T15:56:01.567Z,25.48
2023-01-26T15:58:31.707Z,29.05
2023-01-26T16:01:02.615Z,27.80
2023-01-26T16:03:31.357Z,27.35
2023-01-26T16:05:59.979Z,32.50
2023-01-26T16:08:28.441Z,28.40
2023-01-26T16:10:59.857Z,24.53
2023-01-26T16:13:28.076Z,25.15
2023-01-26T16:15:59.689Z,31.00
2023-01-26T16:18:29.852Z,26.52
2023-01-26T16:20:58.321Z,29.23
2023-01-26T16:23:28.658Z,23.98
2023-01-26T16:25:57.192Z,29.60
2023-01-26T16:28:25.872Z,28.00
2023-01-26T16:30:54.129Z,27.03
2023-01-26T16:33:22.336Z,23.75
2023-01-26T16:35:52.173Z,26.75
2023-01-26T16:38:20.861Z,24.43
2023-01-26T16:40:50.355Z,26.97
2023-01-26T16:43:24.225Z,26.83
2023-01-26T16:45:53.406Z,26.07
2023-01-26T16:48:23.429Z,26.88
2023-01-26T16:50:54.825Z,26.73
2023-01-26T16:53:27.181Z,24.38
2023-01-26T16:55:55.769Z,22.20
2023-01-26T16:58:26.517Z,25.40
2023-01-26T17:00:55.308Z,22.30
2023-01-26T17:03:24.404Z,22.33
2023-01-26T17:05:54.245Z,23.63
2023-01-26T17:08:22.853Z,19.77
2023-01-26T17:11:01.517Z,20.30
2023-01-26T17:13:31.296Z,20.50
2023-01-26T17:16:00.363Z,19.50
2023-01-26T17:18:29.053Z,18.38
2023-01-26T17:21:04.768Z,17.50
2023-01-26T17:23:33.130Z,20.60
2023-01-26T17:26:03.852Z,16.37
2023-01-26T17:28:32.150Z,19.57
2023-01-26T17:31:01.587Z,20.27
2023-01-26T17:33:31.023Z,21.42
2023-01-26T17:36:09.118Z,18.17
2023-01-26T17:38:37.728Z,20.07
2023-01-26T17:41:06.809Z,19.73
2023-01-26T17:43:35.600Z,19.15
2023-01-26T17:46:11.914Z,17.00
2023-01-26T17:48:41.898Z,16.92
2023-01-26T17:51:17.802Z,14.57
2023-01-26T17:53:54.294Z,13.32
2023-01-26T17:56:26.580Z,15.10
2023-01-26T17:58:56.302Z,12.73
2023-01-26T18:01:26.670Z,12.63
2023-01-26T18:03:55.948Z,12.90
2023-01-26T18:06:27.165Z,17.42
2023-01-26T18:08:56.926Z,16.10
2023-01-26T18:11:25.417Z,13.80
2023-01-26T18:13:55.471Z,14.20
2023-01-26T18:16:24.045Z,11.10
2023-01-26T18:18:55.993Z,14.82
2023-01-26T18:21:27.675Z,13.32
2023-01-26T18:23:58.188Z,11.23
2023-01-26T18:26:29.950Z,11.85
2023-01-26T18:28:59.194Z,13.20
2023-01-26T18:31:29.084Z,12.98
2023-01-26T18:33:59.311Z,12.07
2023-01-26T18:36:29.497Z,12.88
2023-01-26T18:39:00.272Z,12.82
2023-01-26T18:41:30.333Z,14.77
2023-01-26T18:43:59.092Z,16.73
2023-01-26T18:46:31.034Z,13.45
2023-01-26T18:49:00.864Z,13.13
2023-01-26T18:51:32.467Z,12.40
2023-01-26T18:54:01.159Z,14.40
2023-01-26T18:56:32.302Z,12.07
2023-01-26T18:59:00.828Z,15.10
2023-01-26T19:01:29.311Z,12.48
2023-01-26T19:04:02.825Z,12.38
2023-01-26T19:06:33.679Z,13.25
2023-01-26T19:09:04.875Z,17.02
2023-01-26T19:11:36.773Z,12.77
2023-01-26T19:14:06.900Z,14.40
2023-01-26T19:16:36.246Z,15.43
2023-01-26T19:19:05.027Z,16.52
2023-01-26T19:21:35.177Z,13.43
2023-01-26T19:24:06.003Z,14.68
2023-01-26T19:26:34.954Z,14.57
2023-01-26T19:29:03.208Z,14.52
2023-01-26T19:31:32.937Z,14.30
2023-01-26T19:34:02.527Z,13.60
2023-01-26T19:36:35.405Z,15.25
2023-01-26T19:39:05.063Z,13.20
2023-01-26T19:41:34.363Z,11.88
2023-01-26T19:44:02.999Z,13.23
2023-01-26T19:46:31.218Z,13.35
2023-01-26T19:48:59.527Z,13.43
2023-01-26T19:51:29.313Z,12.15
2023-01-26T19:54:00.341Z,10.75
2023-01-26T19:56:33.005Z,11.45
2023-01-26T19:59:04.379Z,12.82
2023-01-26T20:01:35.458Z,14.15
2023-01-26T20:04:05.506Z,11.77
2023-01-26T20:06:35.253Z,11.25
2023-01-26T20:09:06.034Z,7.55
2023-01-26T20:11:34.522Z,10.80
2023-01-26T20:14:05.770Z,11.88
2023-01-26T20:16:35.154Z,13.10
2023-01-26T20:19:05.286Z,11.40
2023-01-26T20:21:35.651Z,12.38
2023-01-26T20:24:06.808Z,12.75
2023-01-26T20:26:36.144Z,11.90
2023-01-26T20:29:08.946Z,12.05
2023-01-26T20:31:37.236Z,18.50
2023-01-26T20:34:05.872Z,13.55
2023-01-26T20:36:35.378Z,14.25
2023-01-26T20:39:05.819Z,14.35
2023-01-26T20:41:35.046Z,13.73
2023-01-26T20:44:06.807Z,14.13
2023-01-26T20:46:43.181Z,14.60
2023-01-26T20:49:14.302Z,11.98
2023-01-26T20:51:45.999Z,15.45
2023-01-26T20:54:18.531Z,13.55
2023-01-26T20:56:46.826Z,16.25
2023-01-26T20:59:15.375Z,12.90
2023-01-26T21:01:46.828Z,14.80
2023-01-26T21:04:15.864Z,14.70
2023-01-26T21:06:44.925Z,14.50
2023-01-26T21:09:13.513Z,12.00
2023-01-26T21:11:43.139Z,15.52
2023-01-26T21:14:13.562Z,11.23
2023-01-26T21:16:42.681Z,15.65
2023-01-26T21:19:10.955Z,13.13
2023-01-26T21:21:39.678Z,17.55
2023-01-26T21:24:08.946Z,15.43
2023-01-26T21:26:37.149Z,17.77
2023-01-26T21:29:07.721Z,15.65
2023-01-26T21:31:39.482Z,14.52
2023-01-26T21:34:11.187Z,14.63
2023-01-26T21:36:39.593Z,14.43
2023-01-26T21:39:12.253Z,15.80
2023-01-26T21:42:03.469Z,13.93
2023-01-26T21:44:54.584Z,16.50
2023-01-26T21:47:23.026Z,14.00
2023-01-26T21:49:51.736Z,10.32
2023-01-26T21:52:37.709Z,12.48
2023-01-26T21:55:07.392Z,15.50
2023-01-26T21:57:53.962Z,12.95
2023-01-26T22:00:24.652Z,16.88
2023-01-26T22:02:54.495Z,14.73
2023-01-26T22:05:22.822Z,12.63
2023-01-26T22:07:51.038Z,12.68
2023-01-26T22:10:19.802Z,10.13
2023-01-26T22:12:47.897Z,15.20
2023-01-26T22:15:16.373Z,11.20
2023-01-26T22:17:45.857Z,11.05
2023-01-26T22:20:14.915Z,11.05
2023-01-26T22:22:43.218Z,10.13
2023-01-26T22:25:11.421Z,11.63
2023-01-26T22:27:41.052Z,11.63
2023-01-26T22:30:13.399Z,10.40
2023-01-26T22:32:45.333Z,8.87
2023-01-26T22:35:15.806Z,9.63
2023-01-26T22:37:56.297Z,9.80
2023-01-26T22:40:28.222Z,9.10
2023-01-26T22:42:57.994Z,6.95
2023-01-26T22:45:28.003Z,8.40
2023-01-26T22:47:58.936Z,6.95
2023-01-26T22:50:30.667Z,7.97
2023-01-26T22:52:59.329Z,7.10
2023-01-26T22:55:29.188Z,4.88
2023-01-26T22:58:00.279Z,4.47
2023-01-26T23:00:28.500Z,4.22
2023-01-26T23:02:56.765Z,4.85
2023-01-26T23:05:25.771Z,4.43
2023-01-26T23:07:56.155Z,3.20
2023-01-26T23:10:30.355Z,3.75
2023-01-26T23:12:58.733Z,2.80
2023-01-26T23:15:27.443Z,4.50
2023-01-26T23:17:55.664Z,3.30
2023-01-26T23:20:25.267Z,4.70
2023-01-26T23:22:57.486Z,3.17
2023-01-26T23:25:43.095Z,4.07
2023-01-26T23:28:11.209Z,3.80
2023-01-26T23:30:40.134Z,2.75
2023-01-26T23:33:08.361Z,3.45
2023-01-26T23:35:38.009Z,3.07
2023-01-26T23:38:07.604Z,3.37
2023-01-26T23:40:36.615Z,3.23
2023-01-26T23:43:16.178Z,2.78
2023-01-26T23:45:45.850Z,2.57
2023-01-26T23:48:14.336Z,2.43
2023-01-26T23:50:43.935Z,3.13
2023-01-26T23:53:14.331Z,3.67
2023-01-26T23:55:43.665Z,3.37
2023-01-26T23:58:12.784Z,2.65
